sensor_id;sensor_type;location;lat;lon;timestamp;P1;durP1;ratioP1;P2;durP2;ratioP2
64712;SDS011;51140;45.340;5.980;2023-12-20T00:01:16;17.70;;;10.02;;
64712;SDS011;51140;45.340;5.980;2023-12-20T00:03:41;24.98;;;10.95;;
64712;SDS011;51140;45.340;5.980;2023-12-20T00:06:06;20.33;;;10.55;;
64712;SDS011;51140;45.340;5.980;2023-12-20T00:08:32;20.95;;;10.85;;
64712;SDS011;51140;45.340;5.980;2023-12-20T00:10:57;18.33;;;8.73;;
64712;SDS011;51140;45.340;5.980;2023-12-20T00:13:23;17.40;;;9.40;;
64712;SDS011;51140;45.340;5.980;2023-12-20T00:15:48;16.38;;;9.38;;
64712;SDS011;51140;45.340;5.980;2023-12-20T00:18:13;29.25;;;13.23;;
64712;SDS011;51140;45.340;5.980;2023-12-20T00:20:39;27.05;;;13.57;;
64712;SDS011;51140;45.340;5.980;2023-12-20T00:23:04;25.83;;;13.55;;
64712;SDS011;51140;45.340;5.980;2023-12-20T00:25:30;23.85;;;13.60;;
64712;SDS011;51140;45.340;5.980;2023-12-20T00:27:55;21.27;;;11.48;;
64712;SDS011;51140;45.340;5.980;2023-12-20T00:30:20;22.30;;;12.48;;
64712;SDS011;51140;45.340;5.980;2023-12-20T00:32:46;25.00;;;12.65;;
64712;SDS011;51140;45.340;5.980;2023-12-20T00:35:18;23.20;;;11.10;;
64712;SDS011;51140;45.340;5.980;2023-12-20T00:37:43;19.13;;;11.05;;
64712;SDS011;51140;45.340;5.980;2023-12-20T00:40:09;25.77;;;12.68;;
64712;SDS011;51140;45.340;5.980;2023-12-20T00:42:34;23.95;;;12.82;;
64712;SDS011;51140;45.340;5.980;2023-12-20T00:45:03;23.95;;;12.38;;
64712;SDS011;51140;45.340;5.980;2023-12-20T00:47:30;23.98;;;12.13;;
64712;SDS011;51140;45.340;5.980;2023-12-20T00:49:55;17.83;;;10.95;;
64712;SDS011;51140;45.340;5.980;2023-12-20T00:52:21;19.05;;;10.90;;
64712;SDS011;51140;45.340;5.980;2023-12-20T00:54:47;24.42;;;12.27;;
64712;SDS011;51140;45.340;5.980;2023-12-20T00:57:13;16.83;;;9.98;;
64712;SDS011;51140;45.340;5.980;2023-12-20T00:59:38;20.58;;;10.55;;
64712;SDS011;51140;45.340;5.980;2023-12-20T01:02:04;17.23;;;9.27;;
64712;SDS011;51140;45.340;5.980;2023-12-20T01:04:29;16.38;;;8.45;;
64712;SDS011;51140;45.340;5.980;2023-12-20T01:06:54;16.65;;;8.13;;
64712;SDS011;51140;45.340;5.980;2023-12-20T01:09:19;15.77;;;7.80;;
64712;SDS011;51140;45.340;5.980;2023-12-20T01:11:48;14.93;;;8.10;;
64712;SDS011;51140;45.340;5.980;2023-12-20T01:14:13;15.68;;;8.35;;
64712;SDS011;51140;45.340;5.980;2023-12-20T01:16:39;15.32;;;8.05;;
64712;SDS011;51140;45.340;5.980;2023-12-20T01:19:04;13.40;;;6.85;;
64712;SDS011;51140;45.340;5.980;2023-12-20T01:21:30;17.27;;;9.32;;
64712;SDS011;51140;45.340;5.980;2023-12-20T01:23:55;17.20;;;9.13;;
64712;SDS011;51140;45.340;5.980;2023-12-20T01:26:20;15.75;;;8.10;;
64712;SDS011;51140;45.340;5.980;2023-12-20T01:28:46;20.67;;;9.68;;
64712;SDS011;51140;45.340;5.980;2023-12-20T01:31:11;15.77;;;8.88;;
64712;SDS011;51140;45.340;5.980;2023-12-20T01:33:36;17.35;;;9.35;;
64712;SDS011;51140;45.340;5.980;2023-12-20T01:36:02;16.15;;;9.45;;
64712;SDS011;51140;45.340;5.980;2023-12-20T01:38:28;20.00;;;10.55;;
64712;SDS011;51140;45.340;5.980;2023-12-20T01:40:54;19.40;;;10.52;;
64712;SDS011;51140;45.340;5.980;2023-12-20T01:43:19;19.30;;;11.32;;
64712;SDS011;51140;45.340;5.980;2023-12-20T01:45:44;19.00;;;10.35;;
64712;SDS011;51140;45.340;5.980;2023-12-20T01:48:10;20.38;;;10.80;;
64712;SDS011;51140;45.340;5.980;2023-12-20T01:50:36;18.88;;;10.93;;
64712;SDS011;51140;45.340;5.980;2023-12-20T01:53:03;25.05;;;12.15;;
64712;SDS011;51140;45.340;5.980;2023-12-20T01:55:31;20.08;;;10.85;;
64712;SDS011;51140;45.340;5.980;2023-12-20T01:57:59;14.88;;;8.98;;
64712;SDS011;51140;45.340;5.980;2023-12-20T02:00:26;13.98;;;7.18;;
64712;SDS011;51140;45.340;5.980;2023-12-20T02:02:53;13.90;;;6.15;;
64712;SDS011;51140;45.340;5.980;2023-12-20T02:05:22;15.07;;;6.45;;
64712;SDS011;51140;45.340;5.980;2023-12-20T02:07:48;13.93;;;6.60;;
64712;SDS011;51140;45.340;5.980;2023-12-20T02:10:14;13.02;;;6.90;;
64712;SDS011;51140;45.340;5.980;2023-12-20T02:12:40;18.92;;;10.20;;
64712;SDS011;51140;45.340;5.980;2023-12-20T02:15:06;19.10;;;9.95;;
64712;SDS011;51140;45.340;5.980;2023-12-20T02:17:32;24.88;;;13.00;;
64712;SDS011;51140;45.340;5.980;2023-12-20T02:19:58;20.55;;;12.38;;
64712;SDS011;51140;45.340;5.980;2023-12-20T02:22:23;22.10;;;12.98;;
64712;SDS011;51140;45.340;5.980;2023-12-20T02:24:48;28.30;;;13.85;;
64712;SDS011;51140;45.340;5.980;2023-12-20T02:27:14;24.27;;;12.85;;
64712;SDS011;51140;45.340;5.980;2023-12-20T02:29:42;23.95;;;13.13;;
64712;SDS011;51140;45.340;5.980;2023-12-20T02:32:08;24.35;;;13.30;;
64712;SDS011;51140;45.340;5.980;2023-12-20T02:34:33;22.08;;;12.40;;
64712;SDS011;51140;45.340;5.980;2023-12-20T02:36:58;20.38;;;11.35;;
64712;SDS011;51140;45.340;5.980;2023-12-20T02:39:24;18.30;;;9.40;;
64712;SDS011;51140;45.340;5.980;2023-12-20T02:41:49;15.85;;;8.55;;
64712;SDS011;51140;45.340;5.980;2023-12-20T02:44:14;17.80;;;8.15;;
64712;SDS011;51140;45.340;5.980;2023-12-20T02:46:40;15.43;;;7.32;;
64712;SDS011;51140;45.340;5.980;2023-12-20T02:49:06;14.07;;;7.10;;
64712;SDS011;51140;45.340;5.980;2023-12-20T02:51:31;12.48;;;6.72;;
64712;SDS011;51140;45.340;5.980;2023-12-20T02:53:57;13.05;;;6.03;;
64712;SDS011;51140;45.340;5.980;2023-12-20T02:56:22;11.65;;;6.80;;
64712;SDS011;51140;45.340;5.980;2023-12-20T02:58:47;24.45;;;13.88;;
64712;SDS011;51140;45.340;5.980;2023-12-20T03:01:13;24.45;;;12.60;;
64712;SDS011;51140;45.340;5.980;2023-12-20T03:03:38;22.55;;;12.82;;
64712;SDS011;51140;45.340;5.980;2023-12-20T03:06:04;24.02;;;13.98;;
64712;SDS011;51140;45.340;5.980;2023-12-20T03:08:29;26.65;;;15.63;;
64712;SDS011;51140;45.340;5.980;2023-12-20T03:10:55;25.95;;;15.07;;
64712;SDS011;51140;45.340;5.980;2023-12-20T03:13:20;27.98;;;15.48;;
64712;SDS011;51140;45.340;5.980;2023-12-20T03:15:45;27.08;;;15.43;;
64712;SDS011;51140;45.340;5.980;2023-12-20T03:18:11;29.20;;;16.00;;
64712;SDS011;51140;45.340;5.980;2023-12-20T03:20:36;28.38;;;17.00;;
64712;SDS011;51140;45.340;5.980;2023-12-20T03:23:02;30.08;;;15.88;;
64712;SDS011;51140;45.340;5.980;2023-12-20T03:25:27;27.75;;;15.77;;
64712;SDS011;51140;45.340;5.980;2023-12-20T03:27:53;27.75;;;16.15;;
64712;SDS011;51140;45.340;5.980;2023-12-20T03:30:18;25.30;;;15.15;;
64712;SDS011;51140;45.340;5.980;2023-12-20T03:32:44;29.48;;;15.35;;
64712;SDS011;51140;45.340;5.980;2023-12-20T03:35:10;25.92;;;14.90;;
64712;SDS011;51140;45.340;5.980;2023-12-20T03:37:35;26.90;;;14.40;;
64712;SDS011;51140;45.340;5.980;2023-12-20T03:40:01;29.45;;;14.77;;
64712;SDS011;51140;45.340;5.980;2023-12-20T03:42:27;24.15;;;13.50;;
64712;SDS011;51140;45.340;5.980;2023-12-20T03:44:52;22.63;;;13.70;;
64712;SDS011;51140;45.340;5.980;2023-12-20T03:47:17;23.33;;;13.13;;
64712;SDS011;51140;45.340;5.980;2023-12-20T03:49:43;25.20;;;14.45;;
64712;SDS011;51140;45.340;5.980;2023-12-20T03:52:08;22.63;;;13.85;;
64712;SDS011;51140;45.340;5.980;2023-12-20T03:54:34;26.00;;;14.50;;
64712;SDS011;51140;45.340;5.980;2023-12-20T03:57:00;22.67;;;13.73;;
64712;SDS011;51140;45.340;5.980;2023-12-20T03:59:25;24.20;;;13.80;;
64712;SDS011;51140;45.340;5.980;2023-12-20T04:01:51;22.40;;;12.20;;
64712;SDS011;51140;45.340;5.980;2023-12-20T04:04:16;24.30;;;12.65;;
64712;SDS011;51140;45.340;5.980;2023-12-20T04:06:41;23.65;;;12.63;;
64712;SDS011;51140;45.340;5.980;2023-12-20T04:09:07;22.02;;;13.23;;
64712;SDS011;51140;45.340;5.980;2023-12-20T04:11:34;27.27;;;14.27;;
64712;SDS011;51140;45.340;5.980;2023-12-20T04:13:59;28.00;;;14.57;;
64712;SDS011;51140;45.340;5.980;2023-12-20T04:16:25;25.23;;;13.20;;
64712;SDS011;51140;45.340;5.980;2023-12-20T04:18:51;25.33;;;14.07;;
64712;SDS011;51140;45.340;5.980;2023-12-20T04:21:16;27.83;;;15.45;;
64712;SDS011;51140;45.340;5.980;2023-12-20T04:23:42;31.35;;;17.23;;
64712;SDS011;51140;45.340;5.980;2023-12-20T04:26:07;31.73;;;17.42;;
64712;SDS011;51140;45.340;5.980;2023-12-20T04:28:32;27.25;;;16.02;;
64712;SDS011;51140;45.340;5.980;2023-12-20T04:30:58;24.92;;;14.80;;
64712;SDS011;51140;45.340;5.980;2023-12-20T04:33:23;26.15;;;15.00;;
64712;SDS011;51140;45.340;5.980;2023-12-20T04:35:48;26.95;;;15.18;;
64712;SDS011;51140;45.340;5.980;2023-12-20T04:38:14;27.20;;;14.30;;
64712;SDS011;51140;45.340;5.980;2023-12-20T04:40:39;26.02;;;14.07;;
64712;SDS011;51140;45.340;5.980;2023-12-20T04:43:06;25.23;;;14.63;;
64712;SDS011;51140;45.340;5.980;2023-12-20T04:45:31;29.00;;;16.13;;
64712;SDS011;51140;45.340;5.980;2023-12-20T04:47:57;27.80;;;15.55;;
64712;SDS011;51140;45.340;5.980;2023-12-20T04:50:23;28.20;;;15.75;;
64712;SDS011;51140;45.340;5.980;2023-12-20T04:52:48;28.75;;;16.65;;
64712;SDS011;51140;45.340;5.980;2023-12-20T04:55:13;28.15;;;15.55;;
64712;SDS011;51140;45.340;5.980;2023-12-20T04:57:39;26.55;;;16.48;;
64712;SDS011;51140;45.340;5.980;2023-12-20T05:00:05;29.48;;;16.77;;
64712;SDS011;51140;45.340;5.980;2023-12-20T05:02:31;27.75;;;17.10;;
64712;SDS011;51140;45.340;5.980;2023-12-20T05:04:56;29.92;;;17.65;;
64712;SDS011;51140;45.340;5.980;2023-12-20T05:07:21;31.58;;;17.55;;
64712;SDS011;51140;45.340;5.980;2023-12-20T05:09:47;26.45;;;16.13;;
64712;SDS011;51140;45.340;5.980;2023-12-20T05:12:12;29.02;;;16.90;;
64712;SDS011;51140;45.340;5.980;2023-12-20T05:14:37;32.70;;;18.00;;
64712;SDS011;51140;45.340;5.980;2023-12-20T05:17:03;28.85;;;17.95;;
64712;SDS011;51140;45.340;5.980;2023-12-20T05:19:28;35.63;;;21.25;;
64712;SDS011;51140;45.340;5.980;2023-12-20T05:21:54;33.90;;;18.23;;
64712;SDS011;51140;45.340;5.980;2023-12-20T05:24:19;32.95;;;17.55;;
64712;SDS011;51140;45.340;5.980;2023-12-20T05:26:44;32.78;;;19.48;;
64712;SDS011;51140;45.340;5.980;2023-12-20T05:29:10;29.63;;;16.95;;
64712;SDS011;51140;45.340;5.980;2023-12-20T05:31:35;30.20;;;18.50;;
64712;SDS011;51140;45.340;5.980;2023-12-20T05:34:01;36.03;;;18.17;;
64712;SDS011;51140;45.340;5.980;2023-12-20T05:36:26;29.40;;;18.13;;
64712;SDS011;51140;45.340;5.980;2023-12-20T05:38:51;28.58;;;17.23;;
64712;SDS011;51140;45.340;5.980;2023-12-20T05:41:17;33.25;;;18.88;;
64712;SDS011;51140;45.340;5.980;2023-12-20T05:43:42;30.73;;;17.80;;
64712;SDS011;51140;45.340;5.980;2023-12-20T05:46:09;31.35;;;16.65;;
64712;SDS011;51140;45.340;5.980;2023-12-20T05:48:36;29.35;;;17.42;;
64712;SDS011;51140;45.340;5.980;2023-12-20T05:51:01;32.28;;;18.65;;
64712;SDS011;51140;45.340;5.980;2023-12-20T05:53:26;36.33;;;19.15;;
64712;SDS011;51140;45.340;5.980;2023-12-20T05:55:52;28.45;;;16.65;;
64712;SDS011;51140;45.340;5.980;2023-12-20T05:58:17;31.20;;;17.25;;
64712;SDS011;51140;45.340;5.980;2023-12-20T06:00:43;31.20;;;17.85;;
64712;SDS011;51140;45.340;5.980;2023-12-20T06:03:08;32.58;;;18.77;;
64712;SDS011;51140;45.340;5.980;2023-12-20T06:05:33;36.33;;;19.30;;
64712;SDS011;51140;45.340;5.980;2023-12-20T06:07:59;34.47;;;19.48;;
64712;SDS011;51140;45.340;5.980;2023-12-20T06:10:27;35.55;;;20.20;;
64712;SDS011;51140;45.340;5.980;2023-12-20T06:12:53;34.13;;;20.05;;
64712;SDS011;51140;45.340;5.980;2023-12-20T06:15:18;40.30;;;20.05;;
64712;SDS011;51140;45.340;5.980;2023-12-20T06:17:44;33.03;;;18.25;;
64712;SDS011;51140;45.340;5.980;2023-12-20T06:20:09;36.30;;;20.92;;
64712;SDS011;51140;45.340;5.980;2023-12-20T06:22:35;39.53;;;19.90;;
64712;SDS011;51140;45.340;5.980;2023-12-20T06:25:01;34.30;;;20.27;;
64712;SDS011;51140;45.340;5.980;2023-12-20T06:27:28;35.55;;;19.98;;
64712;SDS011;51140;45.340;5.980;2023-12-20T06:29:53;45.15;;;23.95;;
64712;SDS011;51140;45.340;5.980;2023-12-20T06:32:19;39.30;;;20.17;;
64712;SDS011;51140;45.340;5.980;2023-12-20T06:34:44;36.40;;;22.27;;
64712;SDS011;51140;45.340;5.980;2023-12-20T06:37:10;39.65;;;21.95;;
64712;SDS011;51140;45.340;5.980;2023-12-20T06:39:35;39.22;;;19.63;;
64712;SDS011;51140;45.340;5.980;2023-12-20T06:42:00;34.45;;;19.88;;
64712;SDS011;51140;45.340;5.980;2023-12-20T06:44:26;38.78;;;21.25;;
64712;SDS011;51140;45.340;5.980;2023-12-20T06:46:51;36.35;;;21.45;;
64712;SDS011;51140;45.340;5.980;2023-12-20T06:49:17;39.75;;;21.08;;
64712;SDS011;51140;45.340;5.980;2023-12-20T06:51:43;40.00;;;20.52;;
64712;SDS011;51140;45.340;5.980;2023-12-20T06:54:08;34.42;;;20.85;;
64712;SDS011;51140;45.340;5.980;2023-12-20T06:56:34;37.20;;;20.73;;
64712;SDS011;51140;45.340;5.980;2023-12-20T06:58:59;37.63;;;20.08;;
64712;SDS011;51140;45.340;5.980;2023-12-20T07:01:25;36.35;;;21.05;;
64712;SDS011;51140;45.340;5.980;2023-12-20T07:03:50;41.08;;;21.45;;
64712;SDS011;51140;45.340;5.980;2023-12-20T07:06:15;35.25;;;20.40;;
64712;SDS011;51140;45.340;5.980;2023-12-20T07:08:42;35.50;;;19.67;;
64712;SDS011;51140;45.340;5.980;2023-12-20T07:11:07;35.45;;;19.40;;
64712;SDS011;51140;45.340;5.980;2023-12-20T07:13:33;36.70;;;20.38;;
64712;SDS011;51140;45.340;5.980;2023-12-20T07:15:58;40.13;;;22.35;;
64712;SDS011;51140;45.340;5.980;2023-12-20T07:18:23;38.17;;;23.98;;
64712;SDS011;51140;45.340;5.980;2023-12-20T07:20:49;37.25;;;20.45;;
64712;SDS011;51140;45.340;5.980;2023-12-20T07:23:14;41.08;;;23.73;;
64712;SDS011;51140;45.340;5.980;2023-12-20T07:25:39;38.85;;;20.95;;
64712;SDS011;51140;45.340;5.980;2023-12-20T07:28:05;41.25;;;21.48;;
64712;SDS011;51140;45.340;5.980;2023-12-20T07:30:30;35.08;;;18.88;;
64712;SDS011;51140;45.340;5.980;2023-12-20T07:32:56;37.00;;;19.33;;
64712;SDS011;51140;45.340;5.980;2023-12-20T07:35:22;39.03;;;20.90;;
64712;SDS011;51140;45.340;5.980;2023-12-20T07:37:48;41.75;;;24.77;;
64712;SDS011;51140;45.340;5.980;2023-12-20T07:40:14;38.05;;;21.95;;
64712;SDS011;51140;45.340;5.980;2023-12-20T07:42:41;36.85;;;21.38;;
64712;SDS011;51140;45.340;5.980;2023-12-20T07:45:07;36.92;;;21.88;;
64712;SDS011;51140;45.340;5.980;2023-12-20T07:47:32;41.15;;;22.48;;
64712;SDS011;51140;45.340;5.980;2023-12-20T07:49:58;43.78;;;22.10;;
64712;SDS011;51140;45.340;5.980;2023-12-20T07:52:23;46.65;;;23.83;;
64712;SDS011;51140;45.340;5.980;2023-12-20T07:54:49;41.17;;;22.42;;
64712;SDS011;51140;45.340;5.980;2023-12-20T07:57:14;43.20;;;25.83;;
64712;SDS011;51140;45.340;5.980;2023-12-20T07:59:39;44.05;;;26.30;;
64712;SDS011;51140;45.340;5.980;2023-12-20T08:02:05;42.33;;;21.27;;
64712;SDS011;51140;45.340;5.980;2023-12-20T08:04:31;39.25;;;22.60;;
64712;SDS011;51140;45.340;5.980;2023-12-20T08:06:57;42.47;;;24.63;;
64712;SDS011;51140;45.340;5.980;2023-12-20T08:09:23;46.15;;;26.65;;
64712;SDS011;51140;45.340;5.980;2023-12-20T08:11:48;38.15;;;22.92;;
64712;SDS011;51140;45.340;5.980;2023-12-20T08:14:14;41.78;;;23.50;;
64712;SDS011;51140;45.340;5.980;2023-12-20T08:16:40;46.38;;;24.75;;
64712;SDS011;51140;45.340;5.980;2023-12-20T08:19:05;47.67;;;25.48;;
64712;SDS011;51140;45.340;5.980;2023-12-20T08:21:31;41.45;;;24.60;;
64712;SDS011;51140;45.340;5.980;2023-12-20T08:23:56;44.63;;;26.02;;
64712;SDS011;51140;45.340;5.980;2023-12-20T08:26:22;46.88;;;25.48;;
64712;SDS011;51140;45.340;5.980;2023-12-20T08:28:49;42.90;;;23.88;;
64712;SDS011;51140;45.340;5.980;2023-12-20T08:31:15;47.45;;;26.90;;
64712;SDS011;51140;45.340;5.980;2023-12-20T08:33:44;45.35;;;24.90;;
64712;SDS011;51140;45.340;5.980;2023-12-20T08:36:10;48.85;;;26.92;;
64712;SDS011;51140;45.340;5.980;2023-12-20T08:38:36;44.70;;;24.83;;
64712;SDS011;51140;45.340;5.980;2023-12-20T08:41:01;48.22;;;25.45;;
64712;SDS011;51140;45.340;5.980;2023-12-20T08:43:28;42.85;;;25.20;;
64712;SDS011;51140;45.340;5.980;2023-12-20T08:45:53;44.03;;;25.98;;
64712;SDS011;51140;45.340;5.980;2023-12-20T08:48:19;41.03;;;23.85;;
64712;SDS011;51140;45.340;5.980;2023-12-20T08:50:44;41.60;;;23.67;;
64712;SDS011;51140;45.340;5.980;2023-12-20T08:53:10;44.90;;;24.17;;
64712;SDS011;51140;45.340;5.980;2023-12-20T08:55:36;43.45;;;24.80;;
64712;SDS011;51140;45.340;5.980;2023-12-20T08:58:02;42.28;;;25.27;;
64712;SDS011;51140;45.340;5.980;2023-12-20T09:00:27;42.38;;;24.00;;
64712;SDS011;51140;45.340;5.980;2023-12-20T09:02:53;42.25;;;24.83;;
64712;SDS011;51140;45.340;5.980;2023-12-20T09:05:19;44.15;;;23.73;;
64712;SDS011;51140;45.340;5.980;2023-12-20T09:07:45;44.97;;;24.45;;
64712;SDS011;51140;45.340;5.980;2023-12-20T09:10:10;50.92;;;28.98;;
64712;SDS011;51140;45.340;5.980;2023-12-20T09:12:35;45.50;;;26.13;;
64712;SDS011;51140;45.340;5.980;2023-12-20T09:15:04;50.90;;;26.50;;
64712;SDS011;51140;45.340;5.980;2023-12-20T09:17:30;47.78;;;24.67;;
64712;SDS011;51140;45.340;5.980;2023-12-20T09:19:56;55.30;;;27.30;;
64712;SDS011;51140;45.340;5.980;2023-12-20T09:22:21;47.30;;;25.20;;
64712;SDS011;51140;45.340;5.980;2023-12-20T09:24:46;44.92;;;25.98;;
64712;SDS011;51140;45.340;5.980;2023-12-20T09:27:12;45.83;;;25.85;;
64712;SDS011;51140;45.340;5.980;2023-12-20T09:29:37;47.28;;;26.70;;
64712;SDS011;51140;45.340;5.980;2023-12-20T09:32:03;43.42;;;23.20;;
64712;SDS011;51140;45.340;5.980;2023-12-20T09:34:28;42.78;;;24.55;;
64712;SDS011;51140;45.340;5.980;2023-12-20T09:36:54;48.05;;;25.58;;
64712;SDS011;51140;45.340;5.980;2023-12-20T09:39:20;45.08;;;25.25;;
64712;SDS011;51140;45.340;5.980;2023-12-20T09:42:03;42.42;;;25.13;;
64712;SDS011;51140;45.340;5.980;2023-12-20T09:44:29;49.45;;;24.92;;
64712;SDS011;51140;45.340;5.980;2023-12-20T09:46:56;44.88;;;24.13;;
64712;SDS011;51140;45.340;5.980;2023-12-20T09:49:22;37.60;;;22.67;;
64712;SDS011;51140;45.340;5.980;2023-12-20T09:51:48;36.03;;;21.15;;
64712;SDS011;51140;45.340;5.980;2023-12-20T09:54:16;37.13;;;21.48;;
64712;SDS011;51140;45.340;5.980;2023-12-20T09:56:42;39.28;;;20.27;;
64712;SDS011;51140;45.340;5.980;2023-12-20T09:59:08;48.60;;;22.92;;
64712;SDS011;51140;45.340;5.980;2023-12-20T10:01:33;46.17;;;25.60;;
64712;SDS011;51140;45.340;5.980;2023-12-20T10:03:59;40.90;;;22.67;;
64712;SDS011;51140;45.340;5.980;2023-12-20T10:06:27;35.83;;;20.83;;
64712;SDS011;51140;45.340;5.980;2023-12-20T10:08:52;34.22;;;20.67;;
64712;SDS011;51140;45.340;5.980;2023-12-20T10:11:18;38.50;;;20.83;;
64712;SDS011;51140;45.340;5.980;2023-12-20T10:13:44;29.63;;;16.85;;
64712;SDS011;51140;45.340;5.980;2023-12-20T10:16:13;33.28;;;20.05;;
64712;SDS011;51140;45.340;5.980;2023-12-20T10:18:38;31.95;;;17.92;;
64712;SDS011;51140;45.340;5.980;2023-12-20T10:21:04;26.77;;;15.70;;
64712;SDS011;51140;45.340;5.980;2023-12-20T10:23:31;30.80;;;17.50;;
64712;SDS011;51140;45.340;5.980;2023-12-20T10:26:00;28.23;;;18.00;;
64712;SDS011;51140;45.340;5.980;2023-12-20T10:28:25;27.75;;;15.85;;
64712;SDS011;51140;45.340;5.980;2023-12-20T10:30:54;30.17;;;15.93;;
64712;SDS011;51140;45.340;5.980;2023-12-20T10:33:24;28.42;;;16.20;;
64712;SDS011;51140;45.340;5.980;2023-12-20T10:35:50;26.52;;;15.88;;
64712;SDS011;51140;45.340;5.980;2023-12-20T10:38:17;28.20;;;16.20;;
64712;SDS011;51140;45.340;5.980;2023-12-20T10:40:42;31.73;;;17.13;;
64712;SDS011;51140;45.340;5.980;2023-12-20T10:43:09;25.88;;;16.13;;
64712;SDS011;51140;45.340;5.980;2023-12-20T10:45:36;27.17;;;16.52;;
64712;SDS011;51140;45.340;5.980;2023-12-20T10:48:01;31.67;;;16.17;;
64712;SDS011;51140;45.340;5.980;2023-12-20T10:50:28;29.92;;;16.63;;
64712;SDS011;51140;45.340;5.980;2023-12-20T10:52:55;26.63;;;16.10;;
64712;SDS011;51140;45.340;5.980;2023-12-20T10:55:23;36.70;;;18.45;;
64712;SDS011;51140;45.340;5.980;2023-12-20T10:57:54;36.13;;;19.45;;
64712;SDS011;51140;45.340;5.980;2023-12-20T11:00:31;37.45;;;19.77;;
64712;SDS011;51140;45.340;5.980;2023-12-20T11:02:59;31.08;;;16.67;;
64712;SDS011;51140;45.340;5.980;2023-12-20T11:08:14;27.73;;;16.27;;
64712;SDS011;51140;45.340;5.980;2023-12-20T11:13:48;26.65;;;13.65;;
64712;SDS011;51140;45.340;5.980;2023-12-20T11:16:20;26.85;;;16.35;;
64712;SDS011;51140;45.340;5.980;2023-12-20T11:18:45;23.25;;;13.80;;
64712;SDS011;51140;45.340;5.980;2023-12-20T11:21:11;27.40;;;14.93;;
64712;SDS011;51140;45.340;5.980;2023-12-20T11:23:38;24.08;;;14.05;;
64712;SDS011;51140;45.340;5.980;2023-12-20T11:26:04;26.25;;;14.60;;
64712;SDS011;51140;45.340;5.980;2023-12-20T11:28:29;27.52;;;15.15;;
64712;SDS011;51140;45.340;5.980;2023-12-20T11:30:55;26.95;;;13.77;;
64712;SDS011;51140;45.340;5.980;2023-12-20T11:33:37;25.67;;;14.88;;
64712;SDS011;51140;45.340;5.980;2023-12-20T11:36:03;29.70;;;15.95;;
64712;SDS011;51140;45.340;5.980;2023-12-20T11:38:37;27.90;;;15.13;;
64712;SDS011;51140;45.340;5.980;2023-12-20T11:41:05;27.45;;;16.10;;
64712;SDS011;51140;45.340;5.980;2023-12-20T11:46:03;26.63;;;14.20;;
64712;SDS011;51140;45.340;5.980;2023-12-20T11:48:30;20.20;;;12.18;;
64712;SDS011;51140;45.340;5.980;2023-12-20T11:50:56;28.13;;;17.75;;
64712;SDS011;51140;45.340;5.980;2023-12-20T11:53:22;28.20;;;15.85;;
64712;SDS011;51140;45.340;5.980;2023-12-20T11:55:50;28.33;;;16.23;;
64712;SDS011;51140;45.340;5.980;2023-12-20T11:58:16;27.52;;;15.05;;
64712;SDS011;51140;45.340;5.980;2023-12-20T12:00:44;27.98;;;15.07;;
64712;SDS011;51140;45.340;5.980;2023-12-20T12:03:10;28.45;;;16.67;;
64712;SDS011;51140;45.340;5.980;2023-12-20T12:05:35;25.35;;;14.90;;
64712;SDS011;51140;45.340;5.980;2023-12-20T12:08:01;27.27;;;16.67;;
64712;SDS011;51140;45.340;5.980;2023-12-20T12:10:27;24.27;;;15.40;;
64712;SDS011;51140;45.340;5.980;2023-12-20T12:12:52;24.17;;;15.13;;
64712;SDS011;51140;45.340;5.980;2023-12-20T12:15:19;21.73;;;12.48;;
64712;SDS011;51140;45.340;5.980;2023-12-20T12:17:44;22.38;;;12.80;;
64712;SDS011;51140;45.340;5.980;2023-12-20T12:20:19;20.63;;;12.60;;
64712;SDS011;51140;45.340;5.980;2023-12-20T12:22:45;20.08;;;12.00;;
64712;SDS011;51140;45.340;5.980;2023-12-20T12:25:12;19.60;;;11.68;;
64712;SDS011;51140;45.340;5.980;2023-12-20T12:27:39;24.25;;;14.95;;
64712;SDS011;51140;45.340;5.980;2023-12-20T12:30:05;23.77;;;12.35;;
64712;SDS011;51140;45.340;5.980;2023-12-20T12:32:32;22.25;;;11.68;;
64712;SDS011;51140;45.340;5.980;2023-12-20T12:34:58;17.02;;;9.82;;
64712;SDS011;51140;45.340;5.980;2023-12-20T12:37:23;17.70;;;10.55;;
64712;SDS011;51140;45.340;5.980;2023-12-20T12:39:49;17.48;;;10.35;;
64712;SDS011;51140;45.340;5.980;2023-12-20T12:42:15;19.50;;;11.88;;
64712;SDS011;51140;45.340;5.980;2023-12-20T12:44:40;17.48;;;10.00;;
64712;SDS011;51140;45.340;5.980;2023-12-20T12:47:06;16.42;;;9.75;;
64712;SDS011;51140;45.340;5.980;2023-12-20T12:49:32;18.40;;;9.95;;
64712;SDS011;51140;45.340;5.980;2023-12-20T12:51:57;18.63;;;10.77;;
64712;SDS011;51140;45.340;5.980;2023-12-20T12:54:23;16.50;;;9.05;;
64712;SDS011;51140;45.340;5.980;2023-12-20T12:56:49;16.85;;;9.32;;
64712;SDS011;51140;45.340;5.980;2023-12-20T12:59:15;17.60;;;9.90;;
64712;SDS011;51140;45.340;5.980;2023-12-20T13:01:41;18.83;;;9.98;;
64712;SDS011;51140;45.340;5.980;2023-12-20T13:04:06;23.58;;;14.15;;
64712;SDS011;51140;45.340;5.980;2023-12-20T13:06:35;22.85;;;12.93;;
64712;SDS011;51140;45.340;5.980;2023-12-20T13:09:04;27.27;;;15.48;;
64712;SDS011;51140;45.340;5.980;2023-12-20T13:11:30;20.63;;;11.57;;
64712;SDS011;51140;45.340;5.980;2023-12-20T13:13:56;19.08;;;10.77;;
64712;SDS011;51140;45.340;5.980;2023-12-20T13:16:22;19.38;;;11.40;;
64712;SDS011;51140;45.340;5.980;2023-12-20T13:18:49;19.48;;;10.95;;
64712;SDS011;51140;45.340;5.980;2023-12-20T13:21:14;21.73;;;12.68;;
64712;SDS011;51140;45.340;5.980;2023-12-20T13:23:39;18.30;;;10.10;;
64712;SDS011;51140;45.340;5.980;2023-12-20T13:26:05;14.30;;;7.00;;
64712;SDS011;51140;45.340;5.980;2023-12-20T13:28:30;16.92;;;9.30;;
64712;SDS011;51140;45.340;5.980;2023-12-20T13:30:56;12.85;;;7.32;;
64712;SDS011;51140;45.340;5.980;2023-12-20T13:33:21;14.30;;;6.55;;
64712;SDS011;51140;45.340;5.980;2023-12-20T13:35:46;8.88;;;4.28;;
64712;SDS011;51140;45.340;5.980;2023-12-20T13:38:12;5.43;;;2.28;;
64712;SDS011;51140;45.340;5.980;2023-12-20T13:40:38;5.78;;;1.67;;
64712;SDS011;51140;45.340;5.980;2023-12-20T13:43:03;3.63;;;1.50;;
64712;SDS011;51140;45.340;5.980;2023-12-20T13:45:29;4.32;;;1.88;;
64712;SDS011;51140;45.340;5.980;2023-12-20T13:47:54;4.05;;;1.63;;
64712;SDS011;51140;45.340;5.980;2023-12-20T13:50:20;3.55;;;1.33;;
64712;SDS011;51140;45.340;5.980;2023-12-20T13:52:45;3.95;;;1.60;;
64712;SDS011;51140;45.340;5.980;2023-12-20T13:55:11;6.20;;;2.15;;
64712;SDS011;51140;45.340;5.980;2023-12-20T13:57:36;6.07;;;2.67;;
64712;SDS011;51140;45.340;5.980;2023-12-20T14:00:06;6.97;;;2.72;;
64712;SDS011;51140;45.340;5.980;2023-12-20T14:02:39;14.82;;;6.32;;
64712;SDS011;51140;45.340;5.980;2023-12-20T14:05:04;13.65;;;6.65;;
64712;SDS011;51140;45.340;5.980;2023-12-20T14:07:31;7.90;;;3.60;;
64712;SDS011;51140;45.340;5.980;2023-12-20T14:09:56;10.50;;;5.68;;
64712;SDS011;51140;45.340;5.980;2023-12-20T14:12:21;11.93;;;6.03;;
64712;SDS011;51140;45.340;5.980;2023-12-20T14:14:47;14.32;;;6.22;;
64712;SDS011;51140;45.340;5.980;2023-12-20T14:17:12;15.18;;;7.18;;
64712;SDS011;51140;45.340;5.980;2023-12-20T14:19:37;4.38;;;1.60;;
64712;SDS011;51140;45.340;5.980;2023-12-20T14:22:04;9.02;;;4.70;;
64712;SDS011;51140;45.340;5.980;2023-12-20T14:24:29;8.95;;;3.58;;